Terminal Aerodrome Forecast
Issued by NWS Cleveland, OH

Home | Current Version | Previous Version | Graphics & Text | Print | Product List | Glossary On
Versions: 1 2 3 4 5 6 7 8 9 10 11 12 13 14
489
FTUS41 KCLE 252332
TAFTOL
TAF
KTOL 252332Z 2600/2624 12003KT P6SM SCT250
     FM260900 00000KT 3SM BR SCT250
      TEMPO 2610/2612 2SM BR
     FM261300 VRB03KT P6SM SCT250
     FM261700 24006KT P6SM SCT050=

USA.gov is the U.S. government's official web portal to all federal, state and local government web resources and services.